sensor_id;sensor_type;location;lat;lon;timestamp;P1;durP1;ratioP1;P2;durP2;ratioP2
4377;SDS011;2203;53.686;9.994;2022-11-13T00:01:33;24.60;;;11.23;;
4377;SDS011;2203;53.686;9.994;2022-11-13T00:03:58;18.73;;;10.63;;
4377;SDS011;2203;53.686;9.994;2022-11-13T00:06:24;22.93;;;12.23;;
4377;SDS011;2203;53.686;9.994;2022-11-13T00:08:52;21.23;;;11.10;;
4377;SDS011;2203;53.686;9.994;2022-11-13T00:11:18;17.60;;;11.00;;
4377;SDS011;2203;53.686;9.994;2022-11-13T00:13:44;19.20;;;11.20;;
4377;SDS011;2203;53.686;9.994;2022-11-13T00:16:11;20.03;;;10.97;;
4377;SDS011;2203;53.686;9.994;2022-11-13T00:18:38;25.00;;;11.43;;
4377;SDS011;2203;53.686;9.994;2022-11-13T00:21:07;21.93;;;12.10;;
4377;SDS011;2203;53.686;9.994;2022-11-13T00:23:37;23.07;;;10.60;;
4377;SDS011;2203;53.686;9.994;2022-11-13T00:26:13;18.23;;;10.80;;
4377;SDS011;2203;53.686;9.994;2022-11-13T00:28:42;22.13;;;11.57;;
4377;SDS011;2203;53.686;9.994;2022-11-13T00:31:08;21.20;;;10.73;;
4377;SDS011;2203;53.686;9.994;2022-11-13T00:33:35;19.37;;;11.03;;
4377;SDS011;2203;53.686;9.994;2022-11-13T00:36:04;20.77;;;11.40;;
4377;SDS011;2203;53.686;9.994;2022-11-13T00:38:35;23.63;;;11.53;;
4377;SDS011;2203;53.686;9.994;2022-11-13T00:41:00;22.63;;;11.37;;
4377;SDS011;2203;53.686;9.994;2022-11-13T00:43:26;21.87;;;11.37;;
4377;SDS011;2203;53.686;9.994;2022-11-13T00:45:52;19.47;;;10.83;;
4377;SDS011;2203;53.686;9.994;2022-11-13T00:48:17;20.70;;;9.90;;
4377;SDS011;2203;53.686;9.994;2022-11-13T00:50:43;19.83;;;10.67;;
4377;SDS011;2203;53.686;9.994;2022-11-13T00:53:09;19.00;;;10.93;;
4377;SDS011;2203;53.686;9.994;2022-11-13T00:55:34;22.83;;;10.70;;
4377;SDS011;2203;53.686;9.994;2022-11-13T00:57:59;21.90;;;10.97;;
4377;SDS011;2203;53.686;9.994;2022-11-13T01:00:25;23.53;;;10.37;;
4377;SDS011;2203;53.686;9.994;2022-11-13T01:02:50;18.07;;;11.10;;
4377;SDS011;2203;53.686;9.994;2022-11-13T01:05:16;18.17;;;10.77;;
4377;SDS011;2203;53.686;9.994;2022-11-13T01:07:41;17.20;;;9.80;;
4377;SDS011;2203;53.686;9.994;2022-11-13T01:10:07;23.70;;;11.10;;
4377;SDS011;2203;53.686;9.994;2022-11-13T01:12:32;16.50;;;10.37;;
4377;SDS011;2203;53.686;9.994;2022-11-13T01:14:58;15.33;;;10.03;;
4377;SDS011;2203;53.686;9.994;2022-11-13T01:17:23;21.27;;;11.60;;
4377;SDS011;2203;53.686;9.994;2022-11-13T01:19:49;19.53;;;10.33;;
4377;SDS011;2203;53.686;9.994;2022-11-13T01:22:14;16.33;;;9.23;;
4377;SDS011;2203;53.686;9.994;2022-11-13T01:24:40;20.33;;;11.33;;
4377;SDS011;2203;53.686;9.994;2022-11-13T01:27:05;20.23;;;10.03;;
4377;SDS011;2203;53.686;9.994;2022-11-13T01:29:31;20.33;;;10.53;;
4377;SDS011;2203;53.686;9.994;2022-11-13T01:31:56;22.90;;;11.50;;
4377;SDS011;2203;53.686;9.994;2022-11-13T01:34:21;23.50;;;11.57;;
4377;SDS011;2203;53.686;9.994;2022-11-13T01:36:47;22.10;;;11.40;;
4377;SDS011;2203;53.686;9.994;2022-11-13T01:39:12;24.70;;;11.30;;
4377;SDS011;2203;53.686;9.994;2022-11-13T01:41:38;18.80;;;10.90;;
4377;SDS011;2203;53.686;9.994;2022-11-13T01:44:05;18.50;;;9.83;;
4377;SDS011;2203;53.686;9.994;2022-11-13T01:46:34;22.70;;;12.03;;
4377;SDS011;2203;53.686;9.994;2022-11-13T01:49:33;18.60;;;10.50;;
4377;SDS011;2203;53.686;9.994;2022-11-13T01:52:02;19.53;;;10.07;;
4377;SDS011;2203;53.686;9.994;2022-11-13T01:54:36;20.60;;;10.53;;
4377;SDS011;2203;53.686;9.994;2022-11-13T01:57:07;14.20;;;8.90;;
4377;SDS011;2203;53.686;9.994;2022-11-13T01:59:39;15.23;;;10.20;;
4377;SDS011;2203;53.686;9.994;2022-11-13T02:02:05;22.73;;;11.50;;
4377;SDS011;2203;53.686;9.994;2022-11-13T02:04:31;24.83;;;11.90;;
4377;SDS011;2203;53.686;9.994;2022-11-13T02:09:40;18.10;;;11.17;;
4377;SDS011;2203;53.686;9.994;2022-11-13T02:12:09;22.60;;;10.63;;
4377;SDS011;2203;53.686;9.994;2022-11-13T02:14:37;17.33;;;11.27;;
4377;SDS011;2203;53.686;9.994;2022-11-13T02:17:06;16.17;;;9.90;;
4377;SDS011;2203;53.686;9.994;2022-11-13T02:19:35;22.17;;;10.10;;
4377;SDS011;2203;53.686;9.994;2022-11-13T02:24:57;16.10;;;9.13;;
4377;SDS011;2203;53.686;9.994;2022-11-13T02:29:53;19.67;;;10.30;;
4377;SDS011;2203;53.686;9.994;2022-11-13T02:32:18;18.53;;;11.90;;
4377;SDS011;2203;53.686;9.994;2022-11-13T02:34:43;23.93;;;13.40;;
4377;SDS011;2203;53.686;9.994;2022-11-13T02:37:09;16.80;;;10.33;;
4377;SDS011;2203;53.686;9.994;2022-11-13T02:39:35;20.50;;;11.30;;
4377;SDS011;2203;53.686;9.994;2022-11-13T02:42:00;19.10;;;11.00;;
4377;SDS011;2203;53.686;9.994;2022-11-13T02:44:25;19.13;;;10.50;;
4377;SDS011;2203;53.686;9.994;2022-11-13T02:46:51;17.13;;;10.33;;
4377;SDS011;2203;53.686;9.994;2022-11-13T02:49:16;24.83;;;10.30;;
4377;SDS011;2203;53.686;9.994;2022-11-13T02:51:42;20.13;;;11.43;;
4377;SDS011;2203;53.686;9.994;2022-11-13T02:54:07;21.50;;;12.40;;
4377;SDS011;2203;53.686;9.994;2022-11-13T02:56:32;18.50;;;11.20;;
4377;SDS011;2203;53.686;9.994;2022-11-13T02:58:58;19.83;;;11.10;;
4377;SDS011;2203;53.686;9.994;2022-11-13T03:01:23;27.73;;;12.27;;
4377;SDS011;2203;53.686;9.994;2022-11-13T03:03:49;20.73;;;11.87;;
4377;SDS011;2203;53.686;9.994;2022-11-13T03:06:14;19.47;;;10.90;;
4377;SDS011;2203;53.686;9.994;2022-11-13T03:08:39;23.20;;;11.73;;
4377;SDS011;2203;53.686;9.994;2022-11-13T03:11:06;26.20;;;13.07;;
4377;SDS011;2203;53.686;9.994;2022-11-13T03:13:32;22.50;;;12.73;;
4377;SDS011;2203;53.686;9.994;2022-11-13T03:16:08;19.57;;;12.10;;
4377;SDS011;2203;53.686;9.994;2022-11-13T03:18:34;25.57;;;12.37;;
4377;SDS011;2203;53.686;9.994;2022-11-13T03:21:04;26.57;;;14.27;;
4377;SDS011;2203;53.686;9.994;2022-11-13T03:23:32;25.60;;;12.93;;
4377;SDS011;2203;53.686;9.994;2022-11-13T03:26:01;25.00;;;13.83;;
4377;SDS011;2203;53.686;9.994;2022-11-13T03:28:34;24.43;;;13.87;;
4377;SDS011;2203;53.686;9.994;2022-11-13T03:31:00;23.50;;;12.80;;
4377;SDS011;2203;53.686;9.994;2022-11-13T03:33:26;30.70;;;13.60;;
4377;SDS011;2203;53.686;9.994;2022-11-13T03:35:51;23.50;;;12.90;;
4377;SDS011;2203;53.686;9.994;2022-11-13T03:38:17;30.37;;;14.33;;
4377;SDS011;2203;53.686;9.994;2022-11-13T03:40:42;29.17;;;14.10;;
4377;SDS011;2203;53.686;9.994;2022-11-13T03:43:08;24.33;;;13.37;;
4377;SDS011;2203;53.686;9.994;2022-11-13T03:45:33;26.77;;;14.50;;
4377;SDS011;2203;53.686;9.994;2022-11-13T03:47:59;23.93;;;12.60;;
4377;SDS011;2203;53.686;9.994;2022-11-13T03:50:25;27.10;;;13.43;;
4377;SDS011;2203;53.686;9.994;2022-11-13T03:52:51;25.10;;;12.83;;
4377;SDS011;2203;53.686;9.994;2022-11-13T03:55:16;21.80;;;12.80;;
4377;SDS011;2203;53.686;9.994;2022-11-13T03:57:42;24.97;;;13.07;;
4377;SDS011;2203;53.686;9.994;2022-11-13T04:00:07;26.27;;;13.37;;
4377;SDS011;2203;53.686;9.994;2022-11-13T04:02:33;38.13;;;16.07;;
4377;SDS011;2203;53.686;9.994;2022-11-13T04:04:59;28.30;;;13.90;;
4377;SDS011;2203;53.686;9.994;2022-11-13T04:07:24;25.50;;;13.70;;
4377;SDS011;2203;53.686;9.994;2022-11-13T04:09:49;28.10;;;14.07;;
4377;SDS011;2203;53.686;9.994;2022-11-13T04:12:15;26.20;;;14.53;;
4377;SDS011;2203;53.686;9.994;2022-11-13T04:14:40;35.20;;;14.20;;
4377;SDS011;2203;53.686;9.994;2022-11-13T04:17:05;27.77;;;14.10;;
4377;SDS011;2203;53.686;9.994;2022-11-13T04:19:31;27.80;;;14.10;;
4377;SDS011;2203;53.686;9.994;2022-11-13T04:21:56;23.77;;;13.63;;
4377;SDS011;2203;53.686;9.994;2022-11-13T04:24:21;39.10;;;15.63;;
4377;SDS011;2203;53.686;9.994;2022-11-13T04:26:47;25.43;;;13.77;;
4377;SDS011;2203;53.686;9.994;2022-11-13T04:29:12;24.83;;;14.03;;
4377;SDS011;2203;53.686;9.994;2022-11-13T04:31:38;32.13;;;14.53;;
4377;SDS011;2203;53.686;9.994;2022-11-13T04:34:03;29.70;;;15.23;;
4377;SDS011;2203;53.686;9.994;2022-11-13T04:36:28;27.87;;;14.20;;
4377;SDS011;2203;53.686;9.994;2022-11-13T04:38:54;24.03;;;13.40;;
4377;SDS011;2203;53.686;9.994;2022-11-13T04:41:19;26.27;;;12.07;;
4377;SDS011;2203;53.686;9.994;2022-11-13T04:44:03;23.30;;;12.23;;
4377;SDS011;2203;53.686;9.994;2022-11-13T04:46:29;27.63;;;14.37;;
4377;SDS011;2203;53.686;9.994;2022-11-13T04:48:54;23.00;;;13.30;;
4377;SDS011;2203;53.686;9.994;2022-11-13T04:51:19;25.93;;;14.30;;
4377;SDS011;2203;53.686;9.994;2022-11-13T04:53:45;25.37;;;13.57;;
4377;SDS011;2203;53.686;9.994;2022-11-13T04:56:11;24.47;;;13.07;;
4377;SDS011;2203;53.686;9.994;2022-11-13T04:58:36;23.67;;;13.10;;
4377;SDS011;2203;53.686;9.994;2022-11-13T05:01:02;23.43;;;12.37;;
4377;SDS011;2203;53.686;9.994;2022-11-13T05:03:28;25.90;;;14.77;;
4377;SDS011;2203;53.686;9.994;2022-11-13T05:06:00;26.87;;;13.17;;
4377;SDS011;2203;53.686;9.994;2022-11-13T05:08:26;26.00;;;13.47;;
4377;SDS011;2203;53.686;9.994;2022-11-13T05:10:51;22.00;;;12.63;;
4377;SDS011;2203;53.686;9.994;2022-11-13T05:13:17;28.33;;;13.47;;
4377;SDS011;2203;53.686;9.994;2022-11-13T05:15:42;29.00;;;14.00;;
4377;SDS011;2203;53.686;9.994;2022-11-13T05:18:07;28.27;;;13.50;;
4377;SDS011;2203;53.686;9.994;2022-11-13T05:20:33;29.10;;;13.23;;
4377;SDS011;2203;53.686;9.994;2022-11-13T05:22:58;25.80;;;12.83;;
4377;SDS011;2203;53.686;9.994;2022-11-13T05:25:23;25.07;;;14.00;;
4377;SDS011;2203;53.686;9.994;2022-11-13T05:27:49;25.10;;;13.07;;
4377;SDS011;2203;53.686;9.994;2022-11-13T05:30:14;33.10;;;14.90;;
4377;SDS011;2203;53.686;9.994;2022-11-13T05:32:40;26.90;;;14.50;;
4377;SDS011;2203;53.686;9.994;2022-11-13T05:35:05;23.80;;;12.77;;
4377;SDS011;2203;53.686;9.994;2022-11-13T05:37:31;31.73;;;13.30;;
4377;SDS011;2203;53.686;9.994;2022-11-13T05:39:57;32.20;;;15.53;;
4377;SDS011;2203;53.686;9.994;2022-11-13T05:42:22;27.23;;;14.43;;
4377;SDS011;2203;53.686;9.994;2022-11-13T05:44:47;27.93;;;14.63;;
4377;SDS011;2203;53.686;9.994;2022-11-13T05:47:13;31.10;;;14.87;;
4377;SDS011;2203;53.686;9.994;2022-11-13T05:49:38;26.10;;;13.70;;
4377;SDS011;2203;53.686;9.994;2022-11-13T05:52:03;29.53;;;15.17;;
4377;SDS011;2203;53.686;9.994;2022-11-13T05:54:29;26.83;;;14.97;;
4377;SDS011;2203;53.686;9.994;2022-11-13T05:56:54;26.53;;;14.00;;
4377;SDS011;2203;53.686;9.994;2022-11-13T05:59:20;24.90;;;13.33;;
4377;SDS011;2203;53.686;9.994;2022-11-13T06:01:45;26.83;;;14.57;;
4377;SDS011;2203;53.686;9.994;2022-11-13T06:04:10;25.80;;;13.77;;
4377;SDS011;2203;53.686;9.994;2022-11-13T06:06:36;31.50;;;14.73;;
4377;SDS011;2203;53.686;9.994;2022-11-13T06:09:03;31.57;;;15.77;;
4377;SDS011;2203;53.686;9.994;2022-11-13T06:11:29;28.80;;;14.73;;
4377;SDS011;2203;53.686;9.994;2022-11-13T06:13:55;32.50;;;15.23;;
4377;SDS011;2203;53.686;9.994;2022-11-13T06:16:23;36.93;;;15.60;;
4377;SDS011;2203;53.686;9.994;2022-11-13T06:18:49;27.77;;;14.87;;
4377;SDS011;2203;53.686;9.994;2022-11-13T06:23:41;35.67;;;17.30;;
4377;SDS011;2203;53.686;9.994;2022-11-13T06:26:08;24.93;;;15.47;;
4377;SDS011;2203;53.686;9.994;2022-11-13T06:28:39;33.60;;;16.63;;
4377;SDS011;2203;53.686;9.994;2022-11-13T06:31:08;35.23;;;17.53;;
4377;SDS011;2203;53.686;9.994;2022-11-13T06:33:36;30.10;;;17.13;;
4377;SDS011;2203;53.686;9.994;2022-11-13T06:36:03;31.23;;;16.70;;
4377;SDS011;2203;53.686;9.994;2022-11-13T06:38:30;35.60;;;16.20;;
4377;SDS011;2203;53.686;9.994;2022-11-13T06:40:59;25.30;;;14.47;;
4377;SDS011;2203;53.686;9.994;2022-11-13T06:43:24;27.73;;;14.90;;
4377;SDS011;2203;53.686;9.994;2022-11-13T06:45:50;33.87;;;16.20;;
4377;SDS011;2203;53.686;9.994;2022-11-13T06:48:16;29.83;;;15.40;;
4377;SDS011;2203;53.686;9.994;2022-11-13T06:50:41;28.00;;;15.17;;
4377;SDS011;2203;53.686;9.994;2022-11-13T06:53:07;34.77;;;15.87;;
4377;SDS011;2203;53.686;9.994;2022-11-13T06:55:32;29.00;;;15.57;;
4377;SDS011;2203;53.686;9.994;2022-11-13T06:57:58;29.23;;;16.27;;
4377;SDS011;2203;53.686;9.994;2022-11-13T07:00:23;33.87;;;15.33;;
4377;SDS011;2203;53.686;9.994;2022-11-13T07:02:48;31.00;;;15.63;;
4377;SDS011;2203;53.686;9.994;2022-11-13T07:05:14;27.73;;;15.23;;
4377;SDS011;2203;53.686;9.994;2022-11-13T07:07:39;35.17;;;15.60;;
4377;SDS011;2203;53.686;9.994;2022-11-13T07:10:05;33.23;;;16.80;;
4377;SDS011;2203;53.686;9.994;2022-11-13T07:12:31;32.37;;;17.07;;
4377;SDS011;2203;53.686;9.994;2022-11-13T07:14:56;31.00;;;16.53;;
4377;SDS011;2203;53.686;9.994;2022-11-13T07:17:22;31.77;;;15.73;;
4377;SDS011;2203;53.686;9.994;2022-11-13T07:19:47;34.30;;;16.70;;
4377;SDS011;2203;53.686;9.994;2022-11-13T07:22:12;29.23;;;16.20;;
4377;SDS011;2203;53.686;9.994;2022-11-13T07:24:38;34.30;;;15.17;;
4377;SDS011;2203;53.686;9.994;2022-11-13T07:27:03;36.10;;;15.07;;
4377;SDS011;2203;53.686;9.994;2022-11-13T07:29:28;28.60;;;15.20;;
4377;SDS011;2203;53.686;9.994;2022-11-13T07:31:54;32.23;;;16.00;;
4377;SDS011;2203;53.686;9.994;2022-11-13T07:34:19;34.50;;;16.93;;
4377;SDS011;2203;53.686;9.994;2022-11-13T07:36:45;34.57;;;15.97;;
4377;SDS011;2203;53.686;9.994;2022-11-13T07:39:10;30.13;;;16.50;;
4377;SDS011;2203;53.686;9.994;2022-11-13T07:41:35;33.50;;;17.13;;
4377;SDS011;2203;53.686;9.994;2022-11-13T07:44:01;35.20;;;17.97;;
4377;SDS011;2203;53.686;9.994;2022-11-13T07:46:26;34.77;;;17.40;;
4377;SDS011;2203;53.686;9.994;2022-11-13T07:48:51;30.13;;;16.03;;
4377;SDS011;2203;53.686;9.994;2022-11-13T07:51:17;32.90;;;16.60;;
4377;SDS011;2203;53.686;9.994;2022-11-13T07:53:42;41.50;;;17.83;;
4377;SDS011;2203;53.686;9.994;2022-11-13T07:56:08;32.57;;;17.23;;
4377;SDS011;2203;53.686;9.994;2022-11-13T07:58:33;38.70;;;18.00;;
4377;SDS011;2203;53.686;9.994;2022-11-13T08:01:02;40.30;;;18.13;;
4377;SDS011;2203;53.686;9.994;2022-11-13T08:03:29;45.53;;;18.70;;
4377;SDS011;2203;53.686;9.994;2022-11-13T08:06:02;44.50;;;20.27;;
4377;SDS011;2203;53.686;9.994;2022-11-13T08:08:29;35.23;;;18.37;;
4377;SDS011;2203;53.686;9.994;2022-11-13T08:10:55;35.93;;;16.97;;
4377;SDS011;2203;53.686;9.994;2022-11-13T08:13:20;38.00;;;18.40;;
4377;SDS011;2203;53.686;9.994;2022-11-13T08:15:45;38.57;;;20.07;;
4377;SDS011;2203;53.686;9.994;2022-11-13T08:18:11;34.50;;;18.43;;
4377;SDS011;2203;53.686;9.994;2022-11-13T08:20:36;35.80;;;18.53;;
4377;SDS011;2203;53.686;9.994;2022-11-13T08:23:02;39.50;;;19.70;;
4377;SDS011;2203;53.686;9.994;2022-11-13T08:25:29;42.87;;;19.20;;
4377;SDS011;2203;53.686;9.994;2022-11-13T08:27:54;37.13;;;18.93;;
4377;SDS011;2203;53.686;9.994;2022-11-13T08:30:21;35.17;;;18.70;;
4377;SDS011;2203;53.686;9.994;2022-11-13T08:32:47;33.50;;;17.50;;
4377;SDS011;2203;53.686;9.994;2022-11-13T08:35:13;38.40;;;20.27;;
4377;SDS011;2203;53.686;9.994;2022-11-13T08:37:38;41.10;;;20.17;;
4377;SDS011;2203;53.686;9.994;2022-11-13T08:40:04;47.93;;;20.80;;
4377;SDS011;2203;53.686;9.994;2022-11-13T08:42:30;47.13;;;19.70;;
4377;SDS011;2203;53.686;9.994;2022-11-13T08:44:55;39.00;;;19.93;;
4377;SDS011;2203;53.686;9.994;2022-11-13T08:47:20;39.20;;;21.00;;
4377;SDS011;2203;53.686;9.994;2022-11-13T08:49:46;38.87;;;19.90;;
4377;SDS011;2203;53.686;9.994;2022-11-13T08:52:11;50.60;;;21.87;;
4377;SDS011;2203;53.686;9.994;2022-11-13T08:54:36;36.63;;;18.70;;
4377;SDS011;2203;53.686;9.994;2022-11-13T08:57:02;35.27;;;18.53;;
4377;SDS011;2203;53.686;9.994;2022-11-13T08:59:27;44.33;;;20.53;;
4377;SDS011;2203;53.686;9.994;2022-11-13T09:01:53;45.00;;;19.50;;
4377;SDS011;2203;53.686;9.994;2022-11-13T09:04:23;42.57;;;20.13;;
4377;SDS011;2203;53.686;9.994;2022-11-13T09:06:49;44.73;;;19.40;;
4377;SDS011;2203;53.686;9.994;2022-11-13T09:09:15;36.33;;;18.93;;
4377;SDS011;2203;53.686;9.994;2022-11-13T09:11:41;42.13;;;19.03;;
4377;SDS011;2203;53.686;9.994;2022-11-13T09:14:06;37.67;;;18.40;;
4377;SDS011;2203;53.686;9.994;2022-11-13T09:16:31;40.60;;;19.70;;
4377;SDS011;2203;53.686;9.994;2022-11-13T09:18:57;37.83;;;18.63;;
4377;SDS011;2203;53.686;9.994;2022-11-13T09:21:22;46.57;;;20.40;;
4377;SDS011;2203;53.686;9.994;2022-11-13T09:23:47;40.23;;;19.73;;
4377;SDS011;2203;53.686;9.994;2022-11-13T09:26:13;38.23;;;19.00;;
4377;SDS011;2203;53.686;9.994;2022-11-13T09:28:38;42.37;;;20.00;;
4377;SDS011;2203;53.686;9.994;2022-11-13T09:31:05;38.90;;;18.93;;
4377;SDS011;2203;53.686;9.994;2022-11-13T09:33:31;43.93;;;20.33;;
4377;SDS011;2203;53.686;9.994;2022-11-13T09:35:56;47.67;;;21.23;;
4377;SDS011;2203;53.686;9.994;2022-11-13T09:38:22;57.03;;;23.70;;
4377;SDS011;2203;53.686;9.994;2022-11-13T09:41:01;40.90;;;19.10;;
4377;SDS011;2203;53.686;9.994;2022-11-13T09:43:39;37.80;;;18.33;;
4377;SDS011;2203;53.686;9.994;2022-11-13T09:46:10;40.33;;;19.40;;
4377;SDS011;2203;53.686;9.994;2022-11-13T09:48:43;39.77;;;18.17;;
4377;SDS011;2203;53.686;9.994;2022-11-13T09:51:20;45.50;;;20.17;;
4377;SDS011;2203;53.686;9.994;2022-11-13T09:53:48;32.87;;;17.13;;
4377;SDS011;2203;53.686;9.994;2022-11-13T09:59:23;34.13;;;18.97;;
4377;SDS011;2203;53.686;9.994;2022-11-13T10:10:29;31.77;;;18.03;;
4377;SDS011;2203;53.686;9.994;2022-11-13T10:13:06;30.33;;;17.67;;
4377;SDS011;2203;53.686;9.994;2022-11-13T10:15:42;32.77;;;17.47;;
4377;SDS011;2203;53.686;9.994;2022-11-13T10:18:12;33.60;;;17.20;;
4377;SDS011;2203;53.686;9.994;2022-11-13T10:20:48;35.93;;;18.47;;
4377;SDS011;2203;53.686;9.994;2022-11-13T10:23:17;32.67;;;17.90;;
4377;SDS011;2203;53.686;9.994;2022-11-13T10:25:45;31.07;;;16.40;;
4377;SDS011;2203;53.686;9.994;2022-11-13T10:28:15;33.17;;;18.60;;
4377;SDS011;2203;53.686;9.994;2022-11-13T10:30:47;44.07;;;20.13;;
4377;SDS011;2203;53.686;9.994;2022-11-13T10:33:14;39.43;;;20.13;;
4377;SDS011;2203;53.686;9.994;2022-11-13T10:35:55;37.90;;;20.00;;
4377;SDS011;2203;53.686;9.994;2022-11-13T10:38:27;36.53;;;19.37;;
4377;SDS011;2203;53.686;9.994;2022-11-13T10:41:03;36.77;;;19.70;;
4377;SDS011;2203;53.686;9.994;2022-11-13T10:43:32;40.40;;;21.10;;
4377;SDS011;2203;53.686;9.994;2022-11-13T10:45:58;40.93;;;22.03;;
4377;SDS011;2203;53.686;9.994;2022-11-13T10:48:30;38.83;;;21.50;;
4377;SDS011;2203;53.686;9.994;2022-11-13T10:51:00;37.27;;;20.57;;
4377;SDS011;2203;53.686;9.994;2022-11-13T10:53:37;38.90;;;21.33;;
4377;SDS011;2203;53.686;9.994;2022-11-13T10:56:12;39.00;;;20.37;;
4377;SDS011;2203;53.686;9.994;2022-11-13T10:58:59;41.20;;;21.80;;
4377;SDS011;2203;53.686;9.994;2022-11-13T11:01:36;40.43;;;21.23;;
4377;SDS011;2203;53.686;9.994;2022-11-13T11:04:05;45.07;;;23.10;;
4377;SDS011;2203;53.686;9.994;2022-11-13T11:06:32;43.07;;;22.37;;
4377;SDS011;2203;53.686;9.994;2022-11-13T11:12:07;41.23;;;21.97;;
4377;SDS011;2203;53.686;9.994;2022-11-13T11:17:24;42.47;;;20.70;;
4377;SDS011;2203;53.686;9.994;2022-11-13T11:20:00;40.13;;;21.47;;
4377;SDS011;2203;53.686;9.994;2022-11-13T11:22:30;37.37;;;19.73;;
4377;SDS011;2203;53.686;9.994;2022-11-13T11:25:14;39.00;;;19.70;;
4377;SDS011;2203;53.686;9.994;2022-11-13T11:27:58;33.60;;;18.93;;
4377;SDS011;2203;53.686;9.994;2022-11-13T11:30:28;38.33;;;20.43;;
4377;SDS011;2203;53.686;9.994;2022-11-13T11:40:39;36.47;;;18.40;;
4377;SDS011;2203;53.686;9.994;2022-11-13T11:43:19;35.17;;;18.83;;
4377;SDS011;2203;53.686;9.994;2022-11-13T11:45:51;42.60;;;20.07;;
4377;SDS011;2203;53.686;9.994;2022-11-13T11:48:17;36.10;;;18.33;;
4377;SDS011;2203;53.686;9.994;2022-11-13T11:50:56;33.90;;;18.60;;
4377;SDS011;2203;53.686;9.994;2022-11-13T11:56:30;42.07;;;20.53;;
4377;SDS011;2203;53.686;9.994;2022-11-13T12:07:42;32.23;;;16.23;;
4377;SDS011;2203;53.686;9.994;2022-11-13T12:13:28;26.70;;;14.30;;
4377;SDS011;2203;53.686;9.994;2022-11-13T12:24:04;21.33;;;13.37;;
4377;SDS011;2203;53.686;9.994;2022-11-13T12:29:34;28.97;;;13.40;;
4377;SDS011;2203;53.686;9.994;2022-11-13T12:32:05;20.43;;;12.20;;
4377;SDS011;2203;53.686;9.994;2022-11-13T12:34:40;20.47;;;12.20;;
4377;SDS011;2203;53.686;9.994;2022-11-13T12:37:22;34.07;;;13.33;;
4377;SDS011;2203;53.686;9.994;2022-11-13T12:39:55;27.70;;;12.67;;
4377;SDS011;2203;53.686;9.994;2022-11-13T12:51:01;16.60;;;11.60;;
4377;SDS011;2203;53.686;9.994;2022-11-13T12:56:36;24.10;;;10.50;;
4377;SDS011;2203;53.686;9.994;2022-11-13T13:01:45;26.73;;;12.23;;
4377;SDS011;2203;53.686;9.994;2022-11-13T13:15:58;25.43;;;11.53;;
4377;SDS011;2203;53.686;9.994;2022-11-13T13:18:36;25.40;;;11.00;;
4377;SDS011;2203;53.686;9.994;2022-11-13T13:26:04;22.90;;;12.00;;
4377;SDS011;2203;53.686;9.994;2022-11-13T13:28:31;27.30;;;12.57;;
4377;SDS011;2203;53.686;9.994;2022-11-13T13:32:00;21.93;;;11.97;;
4377;SDS011;2203;53.686;9.994;2022-11-13T13:37:16;22.67;;;11.97;;
4377;SDS011;2203;53.686;9.994;2022-11-13T13:39:50;24.93;;;11.17;;
4377;SDS011;2203;53.686;9.994;2022-11-13T13:45:24;22.43;;;11.77;;
4377;SDS011;2203;53.686;9.994;2022-11-13T13:47:56;16.73;;;11.27;;
4377;SDS011;2203;53.686;9.994;2022-11-13T13:50:26;22.90;;;12.70;;
4377;SDS011;2203;53.686;9.994;2022-11-13T13:52:55;22.63;;;11.87;;
4377;SDS011;2203;53.686;9.994;2022-11-13T13:55:27;24.93;;;12.00;;
4377;SDS011;2203;53.686;9.994;2022-11-13T13:57:56;22.20;;;11.73;;
4377;SDS011;2203;53.686;9.994;2022-11-13T14:00:22;21.30;;;12.83;;
4377;SDS011;2203;53.686;9.994;2022-11-13T14:02:50;21.90;;;12.60;;
4377;SDS011;2203;53.686;9.994;2022-11-13T14:05:30;27.50;;;13.30;;
4377;SDS011;2203;53.686;9.994;2022-11-13T14:08:00;21.90;;;13.53;;
4377;SDS011;2203;53.686;9.994;2022-11-13T14:10:31;25.43;;;14.30;;
4377;SDS011;2203;53.686;9.994;2022-11-13T14:13:00;22.90;;;12.80;;
4377;SDS011;2203;53.686;9.994;2022-11-13T14:15:27;25.30;;;14.27;;
4377;SDS011;2203;53.686;9.994;2022-11-13T14:18:07;25.90;;;13.77;;
4377;SDS011;2203;53.686;9.994;2022-11-13T14:20:39;25.63;;;14.20;;
4377;SDS011;2203;53.686;9.994;2022-11-13T14:23:14;27.00;;;14.97;;
4377;SDS011;2203;53.686;9.994;2022-11-13T14:25:45;27.33;;;16.80;;
4377;SDS011;2203;53.686;9.994;2022-11-13T14:28:12;28.10;;;15.97;;
4377;SDS011;2203;53.686;9.994;2022-11-13T14:30:39;29.73;;;17.37;;
4377;SDS011;2203;53.686;9.994;2022-11-13T14:33:07;33.97;;;18.53;;
4377;SDS011;2203;53.686;9.994;2022-11-13T14:35:34;33.67;;;18.27;;
4377;SDS011;2203;53.686;9.994;2022-11-13T14:38:00;38.10;;;20.03;;
4377;SDS011;2203;53.686;9.994;2022-11-13T14:40:29;40.10;;;22.10;;
4377;SDS011;2203;53.686;9.994;2022-11-13T14:43:01;33.67;;;19.90;;
4377;SDS011;2203;53.686;9.994;2022-11-13T14:45:31;39.90;;;21.77;;
4377;SDS011;2203;53.686;9.994;2022-11-13T14:47:59;39.23;;;23.40;;
4377;SDS011;2203;53.686;9.994;2022-11-13T14:50:47;44.03;;;24.13;;
4377;SDS011;2203;53.686;9.994;2022-11-13T14:55:52;42.53;;;24.03;;
4377;SDS011;2203;53.686;9.994;2022-11-13T14:58:32;41.57;;;22.53;;
4377;SDS011;2203;53.686;9.994;2022-11-13T15:03:49;51.30;;;25.90;;
4377;SDS011;2203;53.686;9.994;2022-11-13T15:06:24;46.40;;;25.80;;
4377;SDS011;2203;53.686;9.994;2022-11-13T15:08:54;45.77;;;25.00;;
4377;SDS011;2203;53.686;9.994;2022-11-13T15:11:21;42.37;;;23.30;;
4377;SDS011;2203;53.686;9.994;2022-11-13T15:13:48;44.57;;;23.40;;
4377;SDS011;2203;53.686;9.994;2022-11-13T15:16:17;44.27;;;23.23;;
4377;SDS011;2203;53.686;9.994;2022-11-13T15:18:47;40.43;;;22.50;;
4377;SDS011;2203;53.686;9.994;2022-11-13T15:21:22;35.00;;;21.03;;
4377;SDS011;2203;53.686;9.994;2022-11-13T15:23:47;37.23;;;19.70;;
4377;SDS011;2203;53.686;9.994;2022-11-13T15:26:12;36.07;;;20.40;;
4377;SDS011;2203;53.686;9.994;2022-11-13T15:28:38;36.20;;;20.00;;
4377;SDS011;2203;53.686;9.994;2022-11-13T15:33:59;34.20;;;20.00;;
4377;SDS011;2203;53.686;9.994;2022-11-13T15:36:25;34.60;;;18.53;;
4377;SDS011;2203;53.686;9.994;2022-11-13T15:38:50;29.80;;;17.90;;
4377;SDS011;2203;53.686;9.994;2022-11-13T15:41:19;32.77;;;16.07;;
4377;SDS011;2203;53.686;9.994;2022-11-13T15:43:47;35.70;;;17.37;;
4377;SDS011;2203;53.686;9.994;2022-11-13T15:46:17;32.47;;;16.90;;
4377;SDS011;2203;53.686;9.994;2022-11-13T15:48:43;29.93;;;16.37;;
4377;SDS011;2203;53.686;9.994;2022-11-13T15:56:40;21.63;;;12.23;;
4377;SDS011;2203;53.686;9.994;2022-11-13T15:59:05;21.60;;;12.20;;
4377;SDS011;2203;53.686;9.994;2022-11-13T16:01:30;22.80;;;12.60;;
4377;SDS011;2203;53.686;9.994;2022-11-13T16:03:56;22.80;;;12.77;;
4377;SDS011;2203;53.686;9.994;2022-11-13T16:06:26;14.83;;;9.70;;
4377;SDS011;2203;53.686;9.994;2022-11-13T16:08:52;17.67;;;10.60;;
4377;SDS011;2203;53.686;9.994;2022-11-13T16:11:18;17.70;;;9.50;;
4377;SDS011;2203;53.686;9.994;2022-11-13T16:13:44;17.50;;;9.83;;
4377;SDS011;2203;53.686;9.994;2022-11-13T16:16:13;15.20;;;9.67;;
4377;SDS011;2203;53.686;9.994;2022-11-13T16:18:40;16.60;;;9.80;;
4377;SDS011;2203;53.686;9.994;2022-11-13T16:21:06;14.97;;;8.43;;
4377;SDS011;2203;53.686;9.994;2022-11-13T16:23:34;15.13;;;9.10;;
4377;SDS011;2203;53.686;9.994;2022-11-13T16:25:59;13.60;;;8.60;;
4377;SDS011;2203;53.686;9.994;2022-11-13T16:28:28;16.63;;;8.30;;
4377;SDS011;2203;53.686;9.994;2022-11-13T16:30:53;15.23;;;8.73;;
4377;SDS011;2203;53.686;9.994;2022-11-13T16:33:20;13.03;;;9.00;;
4377;SDS011;2203;53.686;9.994;2022-11-13T16:35:46;12.40;;;8.03;;
4377;SDS011;2203;53.686;9.994;2022-11-13T16:38:12;13.60;;;7.63;;
4377;SDS011;2203;53.686;9.994;2022-11-13T16:40:38;14.20;;;8.00;;
4377;SDS011;2203;53.686;9.994;2022-11-13T16:43:05;9.50;;;6.80;;
4377;SDS011;2203;53.686;9.994;2022-11-13T16:45:31;9.80;;;6.77;;